sensor_id;sensor_type;location;lat;lon;timestamp;temperature;humidity
11280;DHT22;5696;50.928;6.960;2023-02-10T06:02:07;2.20;99.90
11280;DHT22;5696;50.928;6.960;2023-02-10T06:04:32;2.20;99.90
11280;DHT22;5696;50.928;6.960;2023-02-10T06:06:58;2.10;99.90
11280;DHT22;5696;50.928;6.960;2023-02-10T06:09:25;2.10;99.90
11280;DHT22;5696;50.928;6.960;2023-02-10T06:11:51;2.10;99.90
11280;DHT22;5696;50.928;6.960;2023-02-10T06:14:17;2.20;99.90
11280;DHT22;5696;50.928;6.960;2023-02-10T06:16:43;2.10;99.90
11280;DHT22;5696;50.928;6.960;2023-02-10T06:19:08;2.10;99.90
11280;DHT22;5696;50.928;6.960;2023-02-10T06:21:34;2.10;99.90
11280;DHT22;5696;50.928;6.960;2023-02-10T06:24:00;2.00;99.90
11280;DHT22;5696;50.928;6.960;2023-02-10T06:26:25;2.00;99.90
11280;DHT22;5696;50.928;6.960;2023-02-10T06:28:53;2.00;99.90
11280;DHT22;5696;50.928;6.960;2023-02-10T06:31:19;2.00;99.90
11280;DHT22;5696;50.928;6.960;2023-02-10T06:33:45;2.00;99.90
11280;DHT22;5696;50.928;6.960;2023-02-10T06:36:10;2.00;99.90
11280;DHT22;5696;50.928;6.960;2023-02-10T06:38:37;2.00;99.90
11280;DHT22;5696;50.928;6.960;2023-02-10T06:41:03;1.90;99.90
11280;DHT22;5696;50.928;6.960;2023-02-10T06:43:29;1.90;99.90
11280;DHT22;5696;50.928;6.960;2023-02-10T06:45:55;1.90;99.90
11280;DHT22;5696;50.928;6.960;2023-02-10T06:48:21;1.90;99.90
11280;DHT22;5696;50.928;6.960;2023-02-10T06:50:47;2.00;99.90
11280;DHT22;5696;50.928;6.960;2023-02-10T06:53:12;1.90;99.90
11280;DHT22;5696;50.928;6.960;2023-02-10T06:55:38;2.00;99.90
11280;DHT22;5696;50.928;6.960;2023-02-10T06:58:09;2.00;99.90
11280;DHT22;5696;50.928;6.960;2023-02-10T07:00:35;2.00;99.90
11280;DHT22;5696;50.928;6.960;2023-02-10T07:03:00;2.00;99.90
11280;DHT22;5696;50.928;6.960;2023-02-10T07:05:26;2.00;99.90
11280;DHT22;5696;50.928;6.960;2023-02-10T07:07:52;2.10;99.90
11280;DHT22;5696;50.928;6.960;2023-02-10T07:10:19;2.20;99.90
11280;DHT22;5696;50.928;6.960;2023-02-10T07:12:45;2.20;99.90
11280;DHT22;5696;50.928;6.960;2023-02-10T07:15:13;2.20;99.90
11280;DHT22;5696;50.928;6.960;2023-02-10T07:17:38;2.30;99.90
11280;DHT22;5696;50.928;6.960;2023-02-10T07:20:05;2.40;99.90
11280;DHT22;5696;50.928;6.960;2023-02-10T07:22:30;2.40;99.90
11280;DHT22;5696;50.928;6.960;2023-02-10T07:24:56;2.50;99.90
11280;DHT22;5696;50.928;6.960;2023-02-10T07:27:22;2.50;99.90
11280;DHT22;5696;50.928;6.960;2023-02-10T07:29:48;2.50;99.90
11280;DHT22;5696;50.928;6.960;2023-02-10T07:32:14;2.50;99.90
11280;DHT22;5696;50.928;6.960;2023-02-10T07:34:40;2.50;99.90
11280;DHT22;5696;50.928;6.960;2023-02-10T07:37:07;2.60;99.90
11280;DHT22;5696;50.928;6.960;2023-02-10T07:39:32;2.60;99.90
11280;DHT22;5696;50.928;6.960;2023-02-10T07:41:58;2.60;99.90
11280;DHT22;5696;50.928;6.960;2023-02-10T07:44:23;2.60;99.90
11280;DHT22;5696;50.928;6.960;2023-02-10T07:46:52;2.60;99.90
11280;DHT22;5696;50.928;6.960;2023-02-10T07:49:18;2.60;99.90
11280;DHT22;5696;50.928;6.960;2023-02-10T07:51:44;2.70;99.90
11280;DHT22;5696;50.928;6.960;2023-02-10T07:54:10;2.70;99.90
11280;DHT22;5696;50.928;6.960;2023-02-10T07:56:36;2.80;99.90
11280;DHT22;5696;50.928;6.960;2023-02-10T07:59:02;2.80;99.90
11280;DHT22;5696;50.928;6.960;2023-02-10T08:01:27;2.70;99.90
11280;DHT22;5696;50.928;6.960;2023-02-10T08:03:53;2.80;99.90
11280;DHT22;5696;50.928;6.960;2023-02-10T08:06:25;2.80;99.90
11280;DHT22;5696;50.928;6.960;2023-02-10T08:08:51;2.90;99.90
11280;DHT22;5696;50.928;6.960;2023-02-10T08:11:17;2.90;99.90
11280;DHT22;5696;50.928;6.960;2023-02-10T08:13:43;3.00;99.90
11280;DHT22;5696;50.928;6.960;2023-02-10T08:16:09;3.10;99.90
11280;DHT22;5696;50.928;6.960;2023-02-10T08:18:39;3.20;99.90
11280;DHT22;5696;50.928;6.960;2023-02-10T08:21:05;3.20;99.90
11280;DHT22;5696;50.928;6.960;2023-02-10T08:23:30;3.20;99.90
11280;DHT22;5696;50.928;6.960;2023-02-10T08:25:57;3.20;99.90
11280;DHT22;5696;50.928;6.960;2023-02-10T08:28:22;3.20;99.90
11280;DHT22;5696;50.928;6.960;2023-02-10T08:30:48;3.30;99.90
11280;DHT22;5696;50.928;6.960;2023-02-10T08:33:14;3.30;99.90
11280;DHT22;5696;50.928;6.960;2023-02-10T08:35:40;3.30;99.90
11280;DHT22;5696;50.928;6.960;2023-02-10T08:38:06;3.40;99.90
11280;DHT22;5696;50.928;6.960;2023-02-10T08:40:34;3.40;99.90
11280;DHT22;5696;50.928;6.960;2023-02-10T08:43:00;3.50;99.90
11280;DHT22;5696;50.928;6.960;2023-02-10T08:45:26;3.50;99.90
11280;DHT22;5696;50.928;6.960;2023-02-10T08:47:52;3.60;99.90
11280;DHT22;5696;50.928;6.960;2023-02-10T08:50:17;3.70;99.90
11280;DHT22;5696;50.928;6.960;2023-02-10T08:52:43;3.80;99.90
11280;DHT22;5696;50.928;6.960;2023-02-10T08:55:08;3.80;99.90
11280;DHT22;5696;50.928;6.960;2023-02-10T08:57:36;3.80;99.90
11280;DHT22;5696;50.928;6.960;2023-02-10T09:00:04;3.90;99.90
11280;DHT22;5696;50.928;6.960;2023-02-10T09:02:30;4.00;99.90
11280;DHT22;5696;50.928;6.960;2023-02-10T09:04:55;4.10;99.90
11280;DHT22;5696;50.928;6.960;2023-02-10T09:07:21;4.20;99.90
11280;DHT22;5696;50.928;6.960;2023-02-10T09:09:47;4.40;99.90
11280;DHT22;5696;50.928;6.960;2023-02-10T09:12:12;4.40;99.90
11280;DHT22;5696;50.928;6.960;2023-02-10T09:14:39;4.30;99.90
11280;DHT22;5696;50.928;6.960;2023-02-10T09:17:05;4.40;99.90
11280;DHT22;5696;50.928;6.960;2023-02-10T09:19:36;4.40;99.90
11280;DHT22;5696;50.928;6.960;2023-02-10T09:22:05;4.40;99.90
11280;DHT22;5696;50.928;6.960;2023-02-10T09:24:32;4.50;99.90
11280;DHT22;5696;50.928;6.960;2023-02-10T09:26:58;4.50;99.90
11280;DHT22;5696;50.928;6.960;2023-02-10T09:29:24;4.60;99.90
11280;DHT22;5696;50.928;6.960;2023-02-10T09:31:49;4.60;99.90
11280;DHT22;5696;50.928;6.960;2023-02-10T09:34:15;4.60;99.90
11280;DHT22;5696;50.928;6.960;2023-02-10T09:36:41;4.70;99.90
11280;DHT22;5696;50.928;6.960;2023-02-10T09:39:06;4.80;99.90
11280;DHT22;5696;50.928;6.960;2023-02-10T09:44:23;5.10;99.90
11280;DHT22;5696;50.928;6.960;2023-02-10T09:55:27;5.60;99.90
11280;DHT22;5696;50.928;6.960;2023-02-10T09:57:59;5.50;99.90
11280;DHT22;5696;50.928;6.960;2023-02-10T10:00:40;5.50;99.90
11280;DHT22;5696;50.928;6.960;2023-02-10T10:03:11;5.50;99.90
11280;DHT22;5696;50.928;6.960;2023-02-10T10:10:47;5.80;99.90
11280;DHT22;5696;50.928;6.960;2023-02-10T10:13:15;5.70;99.90
11280;DHT22;5696;50.928;6.960;2023-02-10T10:15:55;5.70;99.90
11280;DHT22;5696;50.928;6.960;2023-02-10T10:21:31;5.80;99.90
11280;DHT22;5696;50.928;6.960;2023-02-10T10:24:10;5.80;99.90
11280;DHT22;5696;50.928;6.960;2023-02-10T10:29:51;6.30;99.90
11280;DHT22;5696;50.928;6.960;2023-02-10T10:32:40;6.30;99.90
11280;DHT22;5696;50.928;6.960;2023-02-10T10:35:17;6.40;99.90
11280;DHT22;5696;50.928;6.960;2023-02-10T10:37:43;6.40;99.90
11280;DHT22;5696;50.928;6.960;2023-02-10T10:40:19;6.50;99.90
11280;DHT22;5696;50.928;6.960;2023-02-10T10:42:52;6.70;99.90
11280;DHT22;5696;50.928;6.960;2023-02-10T10:47:59;6.90;99.90
11280;DHT22;5696;50.928;6.960;2023-02-10T10:50:27;6.90;99.90
11280;DHT22;5696;50.928;6.960;2023-02-10T10:52:55;6.90;99.90
11280;DHT22;5696;50.928;6.960;2023-02-10T10:55:48;6.80;99.90
11280;DHT22;5696;50.928;6.960;2023-02-10T10:58:30;6.80;99.90
11280;DHT22;5696;50.928;6.960;2023-02-10T11:01:00;6.80;99.90
11280;DHT22;5696;50.928;6.960;2023-02-10T11:03:26;6.80;99.90
11280;DHT22;5696;50.928;6.960;2023-02-10T11:06:02;6.80;99.90
11280;DHT22;5696;50.928;6.960;2023-02-10T11:08:35;6.90;99.90
11280;DHT22;5696;50.928;6.960;2023-02-10T11:11:04;7.00;99.90
11280;DHT22;5696;50.928;6.960;2023-02-10T11:13:36;7.10;99.90
11280;DHT22;5696;50.928;6.960;2023-02-10T11:16:03;7.10;99.90
11280;DHT22;5696;50.928;6.960;2023-02-10T11:18:30;7.30;99.90
11280;DHT22;5696;50.928;6.960;2023-02-10T11:21:01;7.40;99.90
11280;DHT22;5696;50.928;6.960;2023-02-10T11:23:29;7.50;99.90
11280;DHT22;5696;50.928;6.960;2023-02-10T11:25:57;7.70;99.90
11280;DHT22;5696;50.928;6.960;2023-02-10T11:28:26;7.90;99.90
11280;DHT22;5696;50.928;6.960;2023-02-10T11:31:04;7.90;99.90
11280;DHT22;5696;50.928;6.960;2023-02-10T11:33:33;8.10;99.90
11280;DHT22;5696;50.928;6.960;2023-02-10T11:38:28;8.10;99.90
11280;DHT22;5696;50.928;6.960;2023-02-10T11:41:01;8.60;99.90
11280;DHT22;5696;50.928;6.960;2023-02-10T11:43:32;9.00;99.90
11280;DHT22;5696;50.928;6.960;2023-02-10T11:46:03;9.20;99.90
11280;DHT22;5696;50.928;6.960;2023-02-10T11:48:29;9.20;99.90
11280;DHT22;5696;50.928;6.960;2023-02-10T11:51:16;9.50;99.90
11280;DHT22;5696;50.928;6.960;2023-02-10T11:53:44;9.40;99.90
11280;DHT22;5696;50.928;6.960;2023-02-10T11:56:43;9.60;99.90
11280;DHT22;5696;50.928;6.960;2023-02-10T12:05:32;9.80;99.90
11280;DHT22;5696;50.928;6.960;2023-02-10T12:08:37;10.10;99.90
11280;DHT22;5696;50.928;6.960;2023-02-10T12:17:20;10.50;99.90
11280;DHT22;5696;50.928;6.960;2023-02-10T12:20:18;10.50;99.90
11280;DHT22;5696;50.928;6.960;2023-02-10T12:25:45;10.50;99.90
11280;DHT22;5696;50.928;6.960;2023-02-10T12:31:38;10.60;99.90
11280;DHT22;5696;50.928;6.960;2023-02-10T12:34:32;10.50;99.90
11280;DHT22;5696;50.928;6.960;2023-02-10T12:37:29;10.40;99.90
11280;DHT22;5696;50.928;6.960;2023-02-10T12:40:22;10.60;99.90
11280;DHT22;5696;50.928;6.960;2023-02-10T12:43:26;10.40;99.90
11280;DHT22;5696;50.928;6.960;2023-02-10T12:46:21;10.30;99.90
11280;DHT22;5696;50.928;6.960;2023-02-10T12:49:45;10.10;99.90
11280;DHT22;5696;50.928;6.960;2023-02-10T12:51:59;10.00;99.90
11280;DHT22;5696;50.928;6.960;2023-02-10T12:54:46;9.60;99.90
11280;DHT22;5696;50.928;6.960;2023-02-10T12:57:23;9.50;99.90
11280;DHT22;5696;50.928;6.960;2023-02-10T13:02:56;9.30;99.90
11280;DHT22;5696;50.928;6.960;2023-02-10T13:05:28;9.30;99.90
11280;DHT22;5696;50.928;6.960;2023-02-10T13:07:58;9.30;99.90
11280;DHT22;5696;50.928;6.960;2023-02-10T13:10:45;9.20;99.90
11280;DHT22;5696;50.928;6.960;2023-02-10T13:16:25;9.40;99.90
11280;DHT22;5696;50.928;6.960;2023-02-10T13:21:30;9.40;99.90
11280;DHT22;5696;50.928;6.960;2023-02-10T13:24:11;9.50;99.90
11280;DHT22;5696;50.928;6.960;2023-02-10T13:27:10;9.50;99.90
11280;DHT22;5696;50.928;6.960;2023-02-10T13:29:42;9.50;99.90
11280;DHT22;5696;50.928;6.960;2023-02-10T13:34:54;9.60;99.90
11280;DHT22;5696;50.928;6.960;2023-02-10T13:37:34;9.60;99.90
11280;DHT22;5696;50.928;6.960;2023-02-10T13:40:24;9.50;99.90
11280;DHT22;5696;50.928;6.960;2023-02-10T13:42:58;9.60;99.90
11280;DHT22;5696;50.928;6.960;2023-02-10T13:45:27;9.60;99.90
11280;DHT22;5696;50.928;6.960;2023-02-10T13:47:56;9.50;99.90
11280;DHT22;5696;50.928;6.960;2023-02-10T13:50:42;9.30;99.90
11280;DHT22;5696;50.928;6.960;2023-02-10T14:01:46;9.20;99.90
11280;DHT22;5696;50.928;6.960;2023-02-10T14:06:42;9.00;99.90
11280;DHT22;5696;50.928;6.960;2023-02-10T14:09:32;9.10;99.90
11280;DHT22;5696;50.928;6.960;2023-02-10T14:12:02;9.20;99.90
11280;DHT22;5696;50.928;6.960;2023-02-10T14:14:29;9.20;99.90
11280;DHT22;5696;50.928;6.960;2023-02-10T14:17:17;9.30;99.90
11280;DHT22;5696;50.928;6.960;2023-02-10T14:19:48;9.40;99.90
11280;DHT22;5696;50.928;6.960;2023-02-10T14:24:50;9.40;99.90
11280;DHT22;5696;50.928;6.960;2023-02-10T14:27:18;9.40;99.90
11280;DHT22;5696;50.928;6.960;2023-02-10T14:30:02;9.50;99.90
11280;DHT22;5696;50.928;6.960;2023-02-10T14:32:30;9.50;99.90
11280;DHT22;5696;50.928;6.960;2023-02-10T14:35:01;9.50;99.90
11280;DHT22;5696;50.928;6.960;2023-02-10T14:37:28;9.60;99.90
11280;DHT22;5696;50.928;6.960;2023-02-10T14:39:59;9.60;99.90
11280;DHT22;5696;50.928;6.960;2023-02-10T14:42:28;9.70;99.90
11280;DHT22;5696;50.928;6.960;2023-02-10T14:45:01;9.80;99.90
11280;DHT22;5696;50.928;6.960;2023-02-10T14:47:32;9.80;99.90
11280;DHT22;5696;50.928;6.960;2023-02-10T14:49:58;9.80;99.90
11280;DHT22;5696;50.928;6.960;2023-02-10T14:52:30;10.00;99.90
11280;DHT22;5696;50.928;6.960;2023-02-10T14:54:57;10.10;99.90
11280;DHT22;5696;50.928;6.960;2023-02-10T14:57:24;10.10;99.90
11280;DHT22;5696;50.928;6.960;2023-02-10T14:59:56;10.20;99.90
11280;DHT22;5696;50.928;6.960;2023-02-10T15:02:26;10.20;99.90
11280;DHT22;5696;50.928;6.960;2023-02-10T15:04:56;10.00;99.90
11280;DHT22;5696;50.928;6.960;2023-02-10T15:07:32;9.90;99.90
11280;DHT22;5696;50.928;6.960;2023-02-10T15:10:25;9.80;99.90
11280;DHT22;5696;50.928;6.960;2023-02-10T15:12:51;9.70;99.90
11280;DHT22;5696;50.928;6.960;2023-02-10T15:15:26;9.60;99.90
11280;DHT22;5696;50.928;6.960;2023-02-10T15:17:59;9.50;99.90
11280;DHT22;5696;50.928;6.960;2023-02-10T15:20:28;9.40;99.90
11280;DHT22;5696;50.928;6.960;2023-02-10T15:33:34;8.90;99.90
11280;DHT22;5696;50.928;6.960;2023-02-10T15:41:38;8.80;99.90
11280;DHT22;5696;50.928;6.960;2023-02-10T15:46:42;8.80;99.90
11280;DHT22;5696;50.928;6.960;2023-02-10T15:49:15;8.80;99.90
11280;DHT22;5696;50.928;6.960;2023-02-10T15:51:45;8.80;99.90
11280;DHT22;5696;50.928;6.960;2023-02-10T15:54:17;8.70;99.90
11280;DHT22;5696;50.928;6.960;2023-02-10T15:56:57;8.60;99.90
11280;DHT22;5696;50.928;6.960;2023-02-10T15:59:23;8.50;99.90
11280;DHT22;5696;50.928;6.960;2023-02-10T16:01:54;8.40;99.90
11280;DHT22;5696;50.928;6.960;2023-02-10T16:04:20;8.40;99.90
11280;DHT22;5696;50.928;6.960;2023-02-10T16:06:45;8.30;99.90
11280;DHT22;5696;50.928;6.960;2023-02-10T16:09:12;8.20;99.90
11280;DHT22;5696;50.928;6.960;2023-02-10T16:11:37;8.10;99.90
11280;DHT22;5696;50.928;6.960;2023-02-10T16:14:03;8.10;99.90
11280;DHT22;5696;50.928;6.960;2023-02-10T16:16:28;8.00;99.90
11280;DHT22;5696;50.928;6.960;2023-02-10T16:18:54;7.90;99.90
11280;DHT22;5696;50.928;6.960;2023-02-10T16:21:20;7.90;99.90
11280;DHT22;5696;50.928;6.960;2023-02-10T16:23:45;7.80;99.90
11280;DHT22;5696;50.928;6.960;2023-02-10T16:26:21;7.70;99.90
11280;DHT22;5696;50.928;6.960;2023-02-10T16:28:48;7.70;99.90
11280;DHT22;5696;50.928;6.960;2023-02-10T16:31:14;7.70;99.90
11280;DHT22;5696;50.928;6.960;2023-02-10T16:33:40;7.70;99.90
11280;DHT22;5696;50.928;6.960;2023-02-10T16:36:10;7.70;99.90
11280;DHT22;5696;50.928;6.960;2023-02-10T16:38:35;7.70;99.90
11280;DHT22;5696;50.928;6.960;2023-02-10T16:41:01;7.60;99.90
11280;DHT22;5696;50.928;6.960;2023-02-10T16:43:27;7.60;99.90
11280;DHT22;5696;50.928;6.960;2023-02-10T16:45:52;7.50;99.90
11280;DHT22;5696;50.928;6.960;2023-02-10T16:48:18;7.50;99.90
11280;DHT22;5696;50.928;6.960;2023-02-10T16:50:44;7.50;99.90
11280;DHT22;5696;50.928;6.960;2023-02-10T16:53:10;7.40;99.90
11280;DHT22;5696;50.928;6.960;2023-02-10T16:55:37;7.40;99.90
11280;DHT22;5696;50.928;6.960;2023-02-10T16:58:04;7.50;99.90
11280;DHT22;5696;50.928;6.960;2023-02-10T17:00:30;7.50;99.90
11280;DHT22;5696;50.928;6.960;2023-02-10T17:02:56;7.50;99.90
11280;DHT22;5696;50.928;6.960;2023-02-10T17:05:22;7.50;99.90
11280;DHT22;5696;50.928;6.960;2023-02-10T17:07:48;7.50;99.90
11280;DHT22;5696;50.928;6.960;2023-02-10T17:10:22;7.50;99.90
11280;DHT22;5696;50.928;6.960;2023-02-10T17:12:48;7.50;99.90
11280;DHT22;5696;50.928;6.960;2023-02-10T17:15:14;7.50;99.90
11280;DHT22;5696;50.928;6.960;2023-02-10T17:17:40;7.50;99.90
11280;DHT22;5696;50.928;6.960;2023-02-10T17:20:09;7.40;99.90
11280;DHT22;5696;50.928;6.960;2023-02-10T17:22:41;7.30;99.90
11280;DHT22;5696;50.928;6.960;2023-02-10T17:25:08;7.20;99.90
11280;DHT22;5696;50.928;6.960;2023-02-10T17:27:34;7.10;99.90
11280;DHT22;5696;50.928;6.960;2023-02-10T17:29:59;7.00;99.90
11280;DHT22;5696;50.928;6.960;2023-02-10T17:32:25;6.90;99.90
11280;DHT22;5696;50.928;6.960;2023-02-10T17:34:51;6.80;99.90
11280;DHT22;5696;50.928;6.960;2023-02-10T17:37:17;6.80;99.90
11280;DHT22;5696;50.928;6.960;2023-02-10T17:39:43;6.80;99.90
11280;DHT22;5696;50.928;6.960;2023-02-10T17:42:09;6.80;99.90
11280;DHT22;5696;50.928;6.960;2023-02-10T17:44:35;6.90;99.90
11280;DHT22;5696;50.928;6.960;2023-02-10T17:47:01;6.90;99.90
11280;DHT22;5696;50.928;6.960;2023-02-10T17:49:29;6.90;99.90
11280;DHT22;5696;50.928;6.960;2023-02-10T17:51:55;6.80;99.90
11280;DHT22;5696;50.928;6.960;2023-02-10T17:54:21;6.80;99.90
11280;DHT22;5696;50.928;6.960;2023-02-10T17:56:47;6.70;99.90
11280;DHT22;5696;50.928;6.960;2023-02-10T17:59:13;6.70;99.90
11280;DHT22;5696;50.928;6.960;2023-02-10T18:01:39;6.70;99.90
11280;DHT22;5696;50.928;6.960;2023-02-10T18:04:05;6.70;99.90
11280;DHT22;5696;50.928;6.960;2023-02-10T18:06:31;6.70;99.90
11280;DHT22;5696;50.928;6.960;2023-02-10T18:08:58;6.80;99.90
11280;DHT22;5696;50.928;6.960;2023-02-10T18:11:25;6.80;99.90
11280;DHT22;5696;50.928;6.960;2023-02-10T18:13:52;6.90;99.90
11280;DHT22;5696;50.928;6.960;2023-02-10T18:16:18;6.90;99.90
11280;DHT22;5696;50.928;6.960;2023-02-10T18:18:44;6.90;99.90
11280;DHT22;5696;50.928;6.960;2023-02-10T18:21:19;7.00;99.90
11280;DHT22;5696;50.928;6.960;2023-02-10T18:23:45;7.00;99.90
11280;DHT22;5696;50.928;6.960;2023-02-10T18:26:11;7.00;99.90
11280;DHT22;5696;50.928;6.960;2023-02-10T18:28:37;7.00;99.90
11280;DHT22;5696;50.928;6.960;2023-02-10T18:31:03;7.10;99.90
11280;DHT22;5696;50.928;6.960;2023-02-10T18:33:30;7.00;99.90
11280;DHT22;5696;50.928;6.960;2023-02-10T18:35:56;7.10;99.90
11280;DHT22;5696;50.928;6.960;2023-02-10T18:38:22;7.10;99.90
11280;DHT22;5696;50.928;6.960;2023-02-10T18:40:48;7.10;99.90
11280;DHT22;5696;50.928;6.960;2023-02-10T18:43:21;7.20;99.90
11280;DHT22;5696;50.928;6.960;2023-02-10T18:45:47;7.20;99.90
11280;DHT22;5696;50.928;6.960;2023-02-10T18:48:13;7.20;99.90
11280;DHT22;5696;50.928;6.960;2023-02-10T18:50:39;7.20;99.90
11280;DHT22;5696;50.928;6.960;2023-02-10T18:53:05;7.30;99.90
11280;DHT22;5696;50.928;6.960;2023-02-10T18:55:32;7.30;99.90
11280;DHT22;5696;50.928;6.960;2023-02-10T18:57:58;7.30;99.90
11280;DHT22;5696;50.928;6.960;2023-02-10T19:00:28;7.30;99.90
11280;DHT22;5696;50.928;6.960;2023-02-10T19:02:53;7.30;99.90
11280;DHT22;5696;50.928;6.960;2023-02-10T19:05:19;7.20;99.90
11280;DHT22;5696;50.928;6.960;2023-02-10T19:07:45;7.20;99.90
11280;DHT22;5696;50.928;6.960;2023-02-10T19:10:10;7.10;99.90
11280;DHT22;5696;50.928;6.960;2023-02-10T19:12:36;7.20;99.90
11280;DHT22;5696;50.928;6.960;2023-02-10T19:15:01;7.10;99.90
11280;DHT22;5696;50.928;6.960;2023-02-10T19:17:27;7.10;99.90
11280;DHT22;5696;50.928;6.960;2023-02-10T19:19:53;7.10;99.90
11280;DHT22;5696;50.928;6.960;2023-02-10T19:22:18;7.10;99.90
11280;DHT22;5696;50.928;6.960;2023-02-10T19:24:44;7.10;99.90
11280;DHT22;5696;50.928;6.960;2023-02-10T19:27:09;7.10;99.90
11280;DHT22;5696;50.928;6.960;2023-02-10T19:29:35;7.10;99.90
11280;DHT22;5696;50.928;6.960;2023-02-10T19:32:01;7.20;99.90
11280;DHT22;5696;50.928;6.960;2023-02-10T19:34:26;7.20;99.90
11280;DHT22;5696;50.928;6.960;2023-02-10T19:36:52;7.30;99.90
11280;DHT22;5696;50.928;6.960;2023-02-10T19:39:18;7.20;99.90
11280;DHT22;5696;50.928;6.960;2023-02-10T19:41:44;7.20;99.90
11280;DHT22;5696;50.928;6.960;2023-02-10T19:44:28;7.30;99.90
11280;DHT22;5696;50.928;6.960;2023-02-10T19:46:56;7.30;99.90
11280;DHT22;5696;50.928;6.960;2023-02-10T19:49:22;7.20;99.90
11280;DHT22;5696;50.928;6.960;2023-02-10T19:51:48;7.20;99.90
11280;DHT22;5696;50.928;6.960;2023-02-10T19:54:14;7.20;99.90
11280;DHT22;5696;50.928;6.960;2023-02-10T19:56:42;7.20;99.90
11280;DHT22;5696;50.928;6.960;2023-02-10T19:59:08;7.20;99.90
11280;DHT22;5696;50.928;6.960;2023-02-10T20:01:34;7.20;99.90
11280;DHT22;5696;50.928;6.960;2023-02-10T20:04:00;7.20;99.90
11280;DHT22;5696;50.928;6.960;2023-02-10T20:06:32;7.10;99.90
11280;DHT22;5696;50.928;6.960;2023-02-10T20:08:58;7.10;99.90
11280;DHT22;5696;50.928;6.960;2023-02-10T20:11:24;7.10;99.90
11280;DHT22;5696;50.928;6.960;2023-02-10T20:13:49;7.10;99.90
11280;DHT22;5696;50.928;6.960;2023-02-10T20:16:16;7.00;99.90
11280;DHT22;5696;50.928;6.960;2023-02-10T20:18:42;7.00;99.90
11280;DHT22;5696;50.928;6.960;2023-02-10T20:21:08;7.00;99.90
11280;DHT22;5696;50.928;6.960;2023-02-10T20:23:36;7.10;99.90
11280;DHT22;5696;50.928;6.960;2023-02-10T20:26:03;7.10;99.90
11280;DHT22;5696;50.928;6.960;2023-02-10T20:28:29;7.10;99.90
11280;DHT22;5696;50.928;6.960;2023-02-10T20:30:55;7.10;99.90
11280;DHT22;5696;50.928;6.960;2023-02-10T20:33:23;7.10;99.90
11280;DHT22;5696;50.928;6.960;2023-02-10T20:36:02;7.00;99.90
11280;DHT22;5696;50.928;6.960;2023-02-10T20:38:28;7.10;99.90
11280;DHT22;5696;50.928;6.960;2023-02-10T20:41:02;7.10;99.90
11280;DHT22;5696;50.928;6.960;2023-02-10T20:43:29;7.10;99.90
11280;DHT22;5696;50.928;6.960;2023-02-10T20:45:56;7.10;99.90
11280;DHT22;5696;50.928;6.960;2023-02-10T20:48:22;7.10;99.90
11280;DHT22;5696;50.928;6.960;2023-02-10T20:50:47;7.10;99.90
11280;DHT22;5696;50.928;6.960;2023-02-10T20:53:13;7.10;99.90
11280;DHT22;5696;50.928;6.960;2023-02-10T20:55:39;7.00;99.90
11280;DHT22;5696;50.928;6.960;2023-02-10T20:58:05;7.00;99.90
11280;DHT22;5696;50.928;6.960;2023-02-10T21:00:31;7.00;99.90
11280;DHT22;5696;50.928;6.960;2023-02-10T21:02:57;7.00;99.90
11280;DHT22;5696;50.928;6.960;2023-02-10T21:05:28;7.00;99.90
11280;DHT22;5696;50.928;6.960;2023-02-10T21:07:54;7.00;99.90
11280;DHT22;5696;50.928;6.960;2023-02-10T21:10:20;7.00;99.90
11280;DHT22;5696;50.928;6.960;2023-02-10T21:12:45;6.90;99.90
11280;DHT22;5696;50.928;6.960;2023-02-10T21:15:12;7.00;99.90
11280;DHT22;5696;50.928;6.960;2023-02-10T21:17:37;7.00;99.90
11280;DHT22;5696;50.928;6.960;2023-02-10T21:20:04;7.00;99.90
11280;DHT22;5696;50.928;6.960;2023-02-10T21:22:30;7.00;99.90
11280;DHT22;5696;50.928;6.960;2023-02-10T21:24:57;7.00;99.90
11280;DHT22;5696;50.928;6.960;2023-02-10T21:27:23;7.10;99.90
11280;DHT22;5696;50.928;6.960;2023-02-10T21:29:51;7.10;99.90
11280;DHT22;5696;50.928;6.960;2023-02-10T21:32:17;7.10;99.90
11280;DHT22;5696;50.928;6.960;2023-02-10T21:34:43;7.20;99.90
11280;DHT22;5696;50.928;6.960;2023-02-10T21:37:08;7.20;99.90
11280;DHT22;5696;50.928;6.960;2023-02-10T21:39:34;7.30;99.90
11280;DHT22;5696;50.928;6.960;2023-02-10T21:41:59;7.30;99.90
11280;DHT22;5696;50.928;6.960;2023-02-10T21:44:29;7.30;99.90
11280;DHT22;5696;50.928;6.960;2023-02-10T21:47:00;7.30;99.90
11280;DHT22;5696;50.928;6.960;2023-02-10T21:49:27;7.30;99.90
11280;DHT22;5696;50.928;6.960;2023-02-10T21:51:54;7.30;99.90
11280;DHT22;5696;50.928;6.960;2023-02-10T21:54:21;7.30;99.90
11280;DHT22;5696;50.928;6.960;2023-02-10T21:56:47;7.30;99.90
11280;DHT22;5696;50.928;6.960;2023-02-10T21:59:13;7.30;99.90
11280;DHT22;5696;50.928;6.960;2023-02-10T22:01:39;7.40;99.90
11280;DHT22;5696;50.928;6.960;2023-02-10T22:04:05;7.40;99.90
11280;DHT22;5696;50.928;6.960;2023-02-10T22:06:35;7.40;99.90
11280;DHT22;5696;50.928;6.960;2023-02-10T22:09:04;7.40;99.90
11280;DHT22;5696;50.928;6.960;2023-02-10T22:11:30;7.40;99.90
11280;DHT22;5696;50.928;6.960;2023-02-10T22:13:56;7.40;99.90
11280;DHT22;5696;50.928;6.960;2023-02-10T22:16:22;7.40;99.90
11280;DHT22;5696;50.928;6.960;2023-02-10T22:18:47;7.40;99.90
11280;DHT22;5696;50.928;6.960;2023-02-10T22:21:18;7.40;99.90
11280;DHT22;5696;50.928;6.960;2023-02-10T22:23:44;7.40;99.90
11280;DHT22;5696;50.928;6.960;2023-02-10T22:26:11;7.40;99.90
11280;DHT22;5696;50.928;6.960;2023-02-10T22:28:37;7.50;99.90
11280;DHT22;5696;50.928;6.960;2023-02-10T22:31:11;7.70;99.90
11280;DHT22;5696;50.928;6.960;2023-02-10T22:33:38;7.70;99.90
11280;DHT22;5696;50.928;6.960;2023-02-10T22:36:05;7.60;99.90
11280;DHT22;5696;50.928;6.960;2023-02-10T22:38:31;7.60;99.90
11280;DHT22;5696;50.928;6.960;2023-02-10T22:40:57;7.70;99.90
11280;DHT22;5696;50.928;6.960;2023-02-10T22:43:23;7.60;99.90
11280;DHT22;5696;50.928;6.960;2023-02-10T22:45:53;7.60;99.90
11280;DHT22;5696;50.928;6.960;2023-02-10T22:48:19;7.70;99.90
11280;DHT22;5696;50.928;6.960;2023-02-10T22:50:44;7.70;99.90
11280;DHT22;5696;50.928;6.960;2023-02-10T22:53:10;7.60;99.90
11280;DHT22;5696;50.928;6.960;2023-02-10T22:55:36;7.60;99.90
11280;DHT22;5696;50.928;6.960;2023-02-10T22:58:02;7.70;99.90
11280;DHT22;5696;50.928;6.960;2023-02-10T23:00:27;7.70;99.90
11280;DHT22;5696;50.928;6.960;2023-02-10T23:02:58;7.70;99.90
11280;DHT22;5696;50.928;6.960;2023-02-10T23:05:24;7.60;99.90
11280;DHT22;5696;50.928;6.960;2023-02-10T23:07:49;7.50;99.90
11280;DHT22;5696;50.928;6.960;2023-02-10T23:10:15;7.40;99.90
11280;DHT22;5696;50.928;6.960;2023-02-10T23:12:41;7.40;99.90
11280;DHT22;5696;50.928;6.960;2023-02-10T23:15:11;7.30;99.90
11280;DHT22;5696;50.928;6.960;2023-02-10T23:17:36;7.30;99.90
11280;DHT22;5696;50.928;6.960;2023-02-10T23:20:03;7.40;99.90
11280;DHT22;5696;50.928;6.960;2023-02-10T23:22:29;7.40;99.90
11280;DHT22;5696;50.928;6.960;2023-02-10T23:24:55;7.40;99.90
11280;DHT22;5696;50.928;6.960;2023-02-10T23:27:21;7.50;99.90
11280;DHT22;5696;50.928;6.960;2023-02-10T23:29:57;7.40;99.90
11280;DHT22;5696;50.928;6.960;2023-02-10T23:32:24;7.40;99.90
11280;DHT22;5696;50.928;6.960;2023-02-10T23:34:51;7.40;99.90
11280;DHT22;5696;50.928;6.960;2023-02-10T23:37:17;7.40;99.90
11280;DHT22;5696;50.928;6.960;2023-02-10T23:39:42;7.40;99.90
11280;DHT22;5696;50.928;6.960;2023-02-10T23:42:08;7.50;99.90
11280;DHT22;5696;50.928;6.960;2023-02-10T23:44:34;7.50;99.90